Time;durP1;ratioP1;P1;durP2;ratioP2;P2;SDS_P1;SDS_P2;PMS_P1;PMS_P2;Temp;Humidity;BMP_temperature;BMP_pressure;BME280_temperature;BME280_humidity;BME280_pressure;Samples;Min_cycle;Max_cycle;Signal;HPM_P1;HPM_P2
2022/04/01 00:00:57;;;;;;;2.42;1.10;;;1.50;99.90;;;;;;4997799;28;20033;-85
2022/04/01 00:03:22;;;;;;;3.47;1.15;;;2.10;99.90;;;;;;4999039;28;20439;-85
2022/04/01 00:05:48;;;;;;;2.13;1.15;;;-0.60;99.90;;;;;;4998936;28;20108;-86
2022/04/01 00:08:14;;;;;;;2.40;1.08;;;1.40;99.90;;;;;;4997779;28;20049;-86
2022/04/01 00:10:40;;;;;;;2.30;1.02;;;-0.50;99.90;;;;;;4981496;28;20062;-86
2022/04/01 00:13:06;;;;;;;1.90;0.80;;;-0.60;99.90;;;;;;4997624;28;20030;-86
2022/04/01 00:15:32;;;;;;;4.18;0.90;;;1.90;99.90;;;;;;4987743;28;20376;-85
2022/04/01 00:17:58;;;;;;;1.20;0.70;;;2.10;99.90;;;;;;4977608;28;20031;-86
2022/04/01 00:20:23;;;;;;;1.83;0.70;;;2.30;99.90;;;;;;4979283;28;20438;-86
2022/04/01 00:22:49;;;;;;;2.35;1.17;;;-0.80;99.90;;;;;;4979346;28;20026;-85
2022/04/01 00:25:42;;;;;;;0.63;0.60;;;-0.80;99.90;;;;;;4978111;28;20030;-85
2022/04/01 00:28:07;;;;;;;2.05;0.75;;;1.10;99.90;;;;;;4983512;28;20025;-85
2022/04/01 00:30:34;;;;;;;3.00;1.00;;;-0.10;99.90;;;;;;4998202;28;20034;-85
2022/04/01 00:33:16;;;;;;;1.17;0.70;;;1.90;99.90;;;;;;4997142;28;20371;-85
2022/04/01 00:35:42;;;;;;;4.93;1.00;;;-0.60;99.90;;;;;;4986989;28;20475;-85
2022/04/01 00:38:08;;;;;;;2.67;0.90;;;2.10;99.90;;;;;;4977411;28;20019;-85
2022/04/01 00:40:35;;;;;;;1.55;1.05;;;1.40;99.90;;;;;;4978597;28;20038;-85
2022/04/01 00:43:01;;;;;;;2.58;1.02;;;-0.10;99.90;;;;;;4992410;28;20031;-86
2022/04/01 00:45:27;;;;;;;3.72;1.13;;;1.50;99.90;;;;;;4977206;28;20183;-85
2022/04/01 00:47:55;;;;;;;2.40;1.13;;;1.90;99.90;;;;;;4977398;28;20118;-85
2022/04/01 00:50:22;;;;;;;2.20;1.33;;;1.30;99.90;;;;;;4978620;28;20019;-86
2022/04/01 00:52:48;;;;;;;1.85;0.88;;;1.20;99.90;;;;;;4976152;28;20026;-85
2022/04/01 00:55:14;;;;;;;2.88;0.80;;;-0.30;99.90;;;;;;4991323;28;20667;-85
2022/04/01 00:57:41;;;;;;;3.28;1.20;;;1.50;99.90;;;;;;4988678;28;20031;-85
2022/04/01 01:00:08;;;;;;;5.28;1.42;;;0.90;99.90;;;;;;4976967;28;20034;-86
2022/04/01 01:02:34;;;;;;;2.17;0.85;;;1.00;99.90;;;;;;4976957;28;20038;-85
2022/04/01 01:05:00;;;;;;;1.17;0.70;;;-0.50;99.90;;;;;;4976908;28;20118;-86
2022/04/01 01:07:26;;;;;;;1.50;0.90;;;1.90;99.90;;;;;;4977364;28;20027;-86
2022/04/01 01:09:52;;;;;;;1.10;0.68;;;0.30;99.90;;;;;;4984981;28;20499;-86
2022/04/01 01:18:52;;;;;;;6.25;0.90;;;1.70;99.90;;;;;;5015957;28;20112;-82
2022/04/01 01:21:19;;;;;;;0.95;0.55;;;1.50;99.90;;;;;;4998356;28;20033;-82
2022/04/01 01:23:45;;;;;;;6.47;0.70;;;0.60;99.90;;;;;;5015732;28;20390;-83
2022/04/01 01:26:10;;;;;;;1.35;0.75;;;0.00;99.90;;;;;;4978844;28;20117;-82
2022/04/01 01:28:36;;;;;;;1.95;0.50;;;1.40;99.90;;;;;;4996165;28;20169;-82
2022/04/01 01:31:03;;;;;;;1.13;0.63;;;0.20;99.90;;;;;;4962733;28;20780;-82
2022/04/01 01:33:29;;;;;;;3.67;0.75;;;1.30;99.90;;;;;;4978522;28;20026;-83
2022/04/01 01:35:54;;;;;;;1.20;0.50;;;1.40;99.90;;;;;;4996199;28;20501;-82
2022/04/01 01:38:20;;;;;;;1.70;0.70;;;-0.10;99.90;;;;;;4996233;28;20102;-82
2022/04/01 01:40:46;;;;;;;1.67;0.75;;;0.00;99.90;;;;;;4963042;28;20057;-82
2022/04/01 01:43:12;;;;;;;3.42;1.00;;;-0.10;99.90;;;;;;4996378;28;20066;-82
2022/04/01 01:45:37;;;;;;;1.17;0.73;;;0.50;99.90;;;;;;4996286;28;20038;-82
2022/04/01 01:48:03;;;;;;;2.17;1.10;;;1.20;99.90;;;;;;4996727;28;20099;-82
2022/04/01 01:56:52;;;;;;;2.35;1.05;;;0.80;99.90;;;;;;5001802;28;20049;-82
2022/04/01 01:59:18;;;;;;;2.67;1.40;;;1.00;99.90;;;;;;5015799;28;20026;-82
2022/04/01 02:01:43;;;;;;;3.53;0.85;;;0.00;99.90;;;;;;4998133;28;20524;-82
2022/04/01 02:04:11;;;;;;;1.02;0.93;;;0.20;99.90;;;;;;5015223;28;20097;-82
2022/04/01 02:06:38;;;;;;;1.77;0.82;;;0.20;99.90;;;;;;4998277;28;20029;-83
2022/04/01 02:09:03;;;;;;;1.77;0.63;;;-0.10;99.90;;;;;;4981834;28;20166;-82
2022/04/01 02:11:29;;;;;;;1.85;0.70;;;1.00;99.90;;;;;;4997863;28;20029;-82
2022/04/01 02:13:55;;;;;;;1.42;0.63;;;0.10;99.90;;;;;;4994110;28;20061;-82
2022/04/01 02:16:23;;;;;;;2.03;0.75;;;1.40;99.90;;;;;;4994458;28;20433;-82
2022/04/01 02:18:49;;;;;;;2.13;0.90;;;0.30;99.90;;;;;;4994406;28;20033;-82
2022/04/01 02:21:15;;;;;;;4.32;0.90;;;1.20;99.90;;;;;;4994716;28;20026;-82
2022/04/01 02:23:45;;;;;;;2.40;1.00;;;0.10;99.90;;;;;;4994755;28;20694;-82
2022/04/01 02:26:12;;;;;;;;;;;0.30;99.90;;;;;;4994885;28;20533;-82
2022/04/01 02:28:38;;;;;;;1.02;0.70;;;1.10;99.90;;;;;;4995562;28;19941;-82
2022/04/01 02:31:05;;;;;;;2.97;1.00;;;0.40;99.90;;;;;;4993849;28;20066;-82
2022/04/01 02:33:31;;;;;;;1.58;0.70;;;0.90;99.90;;;;;;4962566;28;20686;-82
2022/04/01 02:35:58;;;;;;;4.85;0.77;;;0.80;99.90;;;;;;4954986;29;20085;-82
2022/04/01 02:38:25;;;;;;;1.83;0.95;;;0.70;99.90;;;;;;4956137;28;20062;-81
2022/04/01 02:40:53;;;;;;;1.73;1.00;;;1.30;99.90;;;;;;4954940;29;20031;-81
2022/04/01 02:43:19;;;;;;;2.47;1.00;;;1.20;99.90;;;;;;4954974;29;20027;-82
2022/04/01 02:45:45;;;;;;;4.75;1.23;;;1.30;99.90;;;;;;4954893;29;20031;-82
2022/04/01 02:48:11;;;;;;;2.60;0.65;;;0.50;99.90;;;;;;4954786;29;20034;-82
2022/04/01 02:50:37;;;;;;;2.10;0.90;;;1.20;99.90;;;;;;4954846;29;20024;-81
2022/04/01 02:53:09;;;;;;;0.50;0.47;;;1.20;99.90;;;;;;4954852;29;20389;-81
2022/04/01 02:55:34;;;;;;;5.90;1.40;;;1.00;99.90;;;;;;4954844;29;20027;-81
2022/04/01 02:58:00;;;;;;;2.10;0.65;;;0.50;99.90;;;;;;4955732;28;20026;-82
2022/04/01 03:00:26;;;;;;;1.00;0.50;;;1.00;99.90;;;;;;4954698;29;20047;-82
2022/04/01 03:02:52;;;;;;;3.15;0.82;;;1.10;99.90;;;;;;4938826;29;20038;-82
2022/04/01 03:05:18;;;;;;;4.82;1.10;;;0.70;99.90;;;;;;4954535;29;20023;-81
2022/04/01 03:07:44;;;;;;;0.43;0.43;;;1.10;99.90;;;;;;4954524;29;20030;-81
2022/04/01 03:10:10;;;;;;;2.25;0.60;;;0.40;99.90;;;;;;4954461;29;20386;-81
2022/04/01 03:12:36;;;;;;;2.28;1.02;;;1.10;99.90;;;;;;4955159;28;20035;-83
2022/04/01 03:15:03;;;;;;;1.38;0.70;;;1.10;99.90;;;;;;4957479;28;20027;-81
2022/04/01 03:17:31;;;;;;;3.80;1.60;;;1.00;99.90;;;;;;4974198;28;20122;-81
2022/04/01 03:19:59;;;;;;;2.67;0.77;;;0.30;99.90;;;;;;4957563;28;20023;-81
2022/04/01 03:22:25;;;;;;;2.50;0.85;;;1.30;99.90;;;;;;4957461;28;20026;-81
2022/04/01 03:24:51;;;;;;;3.20;0.68;;;0.60;99.90;;;;;;4974724;28;20034;-82
2022/04/01 03:27:17;;;;;;;3.03;0.82;;;0.40;99.90;;;;;;4957544;28;20031;-81
2022/04/01 03:29:42;;;;;;;17.33;1.10;;;1.40;99.90;;;;;;4976600;28;20027;-82
2022/04/01 03:32:09;;;;;;;2.05;0.90;;;0.50;99.90;;;;;;4977729;28;20129;-81
2022/04/01 03:34:35;;;;;;;5.47;1.15;;;1.20;99.90;;;;;;4977288;28;20027;-82
2022/04/01 03:37:02;;;;;;;1.65;1.20;;;1.20;99.90;;;;;;4976996;28;20026;-82
2022/04/01 03:39:28;;;;;;;2.58;0.70;;;1.40;99.90;;;;;;4976831;28;20019;-81
2022/04/01 03:41:54;;;;;;;2.83;0.80;;;1.00;99.90;;;;;;4994055;28;20054;-81
2022/04/01 03:44:24;;;;;;;1.35;0.60;;;0.90;99.90;;;;;;4976929;28;20060;-82
2022/04/01 03:47:05;;;;;;;4.22;1.48;;;0.70;99.90;;;;;;4994622;28;20069;-81
2022/04/01 03:49:33;;;;;;;2.15;0.85;;;0.60;99.90;;;;;;4994539;28;20045;-81
2022/04/01 03:51:59;;;;;;;3.80;1.02;;;0.70;99.90;;;;;;4993827;28;20037;-81
2022/04/01 03:54:25;;;;;;;4.68;0.77;;;0.40;99.90;;;;;;4993925;28;20026;-81
2022/04/01 03:56:58;;;;;;;2.58;0.60;;;0.40;99.90;;;;;;4976472;28;20028;-82
2022/04/01 03:59:26;;;;;;;2.22;0.90;;;1.20;99.90;;;;;;4994035;28;20042;-81
2022/04/01 04:01:53;;;;;;;1.90;0.70;;;1.20;99.90;;;;;;4976478;28;20033;-81
2022/04/01 04:04:20;;;;;;;2.30;0.52;;;1.20;99.90;;;;;;4976494;28;20029;-81
2022/04/01 04:06:47;;;;;;;2.58;0.75;;;1.00;99.90;;;;;;4976445;28;20041;-81
2022/04/01 04:09:14;;;;;;;0.82;0.65;;;1.10;99.90;;;;;;4993847;28;20031;-81
2022/04/01 04:11:40;;;;;;;2.17;1.05;;;1.00;99.90;;;;;;4976359;28;20038;-81
2022/04/01 04:14:06;;;;;;;4.70;1.20;;;0.40;99.90;;;;;;4993399;28;20161;-81
2022/04/01 04:16:39;;;;;;;1.05;0.40;;;1.20;99.90;;;;;;4976234;28;20382;-81
2022/04/01 04:19:10;;;;;;;3.25;0.70;;;0.60;99.90;;;;;;4976396;28;20506;-81
2022/04/01 04:21:45;;;;;;;0.75;0.60;;;1.30;99.90;;;;;;4976326;28;20084;-82
2022/04/01 04:24:18;;;;;;;1.42;0.82;;;0.90;99.90;;;;;;4976426;28;20669;-81
2022/04/01 04:27:07;;;;;;;3.15;0.90;;;0.70;99.90;;;;;;4976285;28;20113;-81
2022/04/01 04:29:36;;;;;;;1.33;0.60;;;0.50;99.90;;;;;;4997718;28;20026;-81
2022/04/01 04:32:03;;;;;;;2.60;1.00;;;0.60;99.90;;;;;;4997357;28;20040;-81
2022/04/01 04:34:43;;;;;;;3.38;0.60;;;0.90;99.90;;;;;;4997242;28;20018;-81
2022/04/01 04:37:11;;;;;;;1.88;0.40;;;1.20;99.90;;;;;;4979851;28;20138;-81
2022/04/01 04:39:40;;;;;;;1.40;0.70;;;0.60;99.90;;;;;;4979603;28;20037;-80
2022/04/01 04:42:09;;;;;;;1.00;0.70;;;1.30;99.90;;;;;;4979698;28;20120;-81
2022/04/01 04:44:35;;;;;;;3.03;0.70;;;0.60;99.90;;;;;;4980128;28;20057;-81
2022/04/01 04:47:03;;;;;;;1.50;0.90;;;0.50;99.90;;;;;;4997053;28;20062;-81
2022/04/01 04:49:29;;;;;;;4.60;1.00;;;1.20;99.90;;;;;;4995879;28;20062;-82
2022/04/01 04:51:56;;;;;;;3.22;0.70;;;1.00;99.90;;;;;;4960492;28;20027;-81
2022/04/01 04:54:24;;;;;;;2.13;0.80;;;0.60;99.90;;;;;;4960153;28;20027;-81
2022/04/01 04:56:50;;;;;;;1.50;0.68;;;0.90;99.90;;;;;;4977522;28;20042;-81
2022/04/01 04:59:20;;;;;;;3.97;1.00;;;1.00;99.90;;;;;;4969585;28;20027;-79
2022/04/01 05:01:56;;;;;;;4.88;1.20;;;1.10;99.90;;;;;;4985302;28;20486;-79
2022/04/01 05:08:02;;;;;;;3.40;0.50;;;1.20;99.90;;;;;;5003132;28;20048;-80
2022/04/01 05:11:05;;;;;;;3.67;0.98;;;1.00;99.90;;;;;;4993513;28;20095;-81
2022/04/01 05:13:39;;;;;;;3.05;1.05;;;1.10;99.90;;;;;;4976669;28;20129;-81
2022/04/01 05:16:10;;;;;;;3.13;1.40;;;0.90;99.90;;;;;;4959655;28;20675;-81
2022/04/01 05:18:46;;;;;;;3.08;0.75;;;1.00;99.90;;;;;;4969644;28;20493;-81
2022/04/01 05:21:23;;;;;;;1.15;0.68;;;0.80;99.90;;;;;;4964303;28;20035;-82
2022/04/01 05:24:00;;;;;;;3.00;1.20;;;1.10;99.90;;;;;;4975587;28;20438;-83
2022/04/01 05:26:41;;;;;;;2.05;0.60;;;1.10;99.90;;;;;;4992182;28;20033;-81
2022/04/01 05:29:25;;;;;;;8.02;1.05;;;0.80;99.90;;;;;;4978760;28;20080;-81
2022/04/01 05:32:02;;;;;;;2.40;0.93;;;1.10;99.90;;;;;;4963930;28;20101;-81
2022/04/01 05:34:38;;;;;;;2.72;1.05;;;0.80;99.90;;;;;;4976581;28;20082;-81
2022/04/01 05:37:05;;;;;;;2.63;1.00;;;0.80;99.90;;;;;;4976369;28;20022;-81
2022/04/01 05:39:34;;;;;;;2.65;1.10;;;1.10;99.90;;;;;;4958164;28;20023;-80
2022/04/01 05:42:00;;;;;;;3.85;1.23;;;1.10;99.90;;;;;;4958767;28;20022;-81
2022/04/01 05:44:26;;;;;;;6.35;1.27;;;1.00;99.90;;;;;;4994144;28;20041;-81
2022/04/01 05:46:53;;;;;;;3.58;1.17;;;0.90;99.90;;;;;;4995772;28;20026;-80
2022/04/01 05:49:21;;;;;;;3.45;1.27;;;1.00;99.90;;;;;;4996927;28;20482;-82
2022/04/01 05:51:46;;;;;;;5.15;1.10;;;1.00;99.90;;;;;;4976343;28;20023;-82
2022/04/01 05:54:15;;;;;;;2.50;0.90;;;1.10;99.90;;;;;;4958120;28;20033;-81
2022/04/01 05:56:45;;;;;;;1.10;0.70;;;1.10;99.90;;;;;;4958947;28;20467;-81
2022/04/01 05:59:13;;;;;;;2.45;0.95;;;1.00;99.90;;;;;;4959082;28;20106;-82
2022/04/01 06:01:47;;;;;;;2.20;0.75;;;1.00;99.90;;;;;;4981628;28;20379;-81
2022/04/01 06:04:30;;;;;;;2.00;0.82;;;0.90;99.90;;;;;;4949489;28;20051;-80
2022/04/01 06:07:21;;;;;;;1.48;0.93;;;1.10;99.90;;;;;;4966622;28;20038;-79
2022/04/01 06:10:05;;;;;;;4.50;0.85;;;1.20;99.90;;;;;;4974761;28;20406;-79
2022/04/01 06:12:55;;;;;;;4.13;1.15;;;1.10;99.90;;;;;;4975147;28;20055;-82
2022/04/01 06:15:47;;;;;;;2.83;1.20;;;1.20;99.90;;;;;;4977872;28;20030;-81
2022/04/01 06:18:50;;;;;;;3.00;0.93;;;1.20;99.90;;;;;;4995031;28;20030;-81
2022/04/01 06:21:22;;;;;;;3.95;1.20;;;1.20;99.90;;;;;;4975687;28;20026;-82
2022/04/01 06:24:09;;;;;;;2.50;1.10;;;1.30;99.90;;;;;;4954919;28;20039;-81
2022/04/01 06:26:47;;;;;;;1.33;1.23;;;1.20;99.90;;;;;;4952569;28;20045;-81
2022/04/01 06:29:33;;;;;;;5.57;1.27;;;1.20;99.90;;;;;;4958035;28;20031;-81
2022/04/01 06:32:05;;;;;;;6.60;1.23;;;1.40;99.90;;;;;;4956741;28;20490;-81
2022/04/01 06:34:53;;;;;;;4.00;0.95;;;1.20;99.90;;;;;;4953349;28;20104;-81
2022/04/01 06:37:28;;;;;;;1.58;0.52;;;1.30;99.90;;;;;;4959709;28;20030;-81
2022/04/01 06:40:03;;;;;;;3.00;1.05;;;1.20;99.90;;;;;;4960754;28;20096;-81
2022/04/01 06:42:32;;;;;;;3.13;0.88;;;1.40;99.90;;;;;;4957946;28;20023;-81
2022/04/01 06:44:59;;;;;;;2.45;0.70;;;1.40;99.90;;;;;;4964527;28;20117;-81
2022/04/01 06:47:24;;;;;;;1.90;0.75;;;1.30;99.90;;;;;;4986869;28;20019;-81
2022/04/01 06:49:50;;;;;;;2.42;1.10;;;1.50;99.90;;;;;;4980225;28;20023;-82
2022/04/01 06:52:16;;;;;;;2.72;0.57;;;1.40;99.90;;;;;;4958565;28;20034;-81
2022/04/01 06:54:42;;;;;;;1.83;0.85;;;1.50;99.90;;;;;;4984826;28;20018;-82
2022/04/01 06:57:08;;;;;;;4.47;1.05;;;1.30;99.90;;;;;;4994487;28;20509;-82
2022/04/01 06:59:36;;;;;;;2.20;0.57;;;1.50;99.90;;;;;;4988961;28;20026;-81
2022/04/01 07:02:02;;;;;;;4.60;1.60;;;1.50;99.90;;;;;;4975017;28;20043;-82
2022/04/01 07:04:28;;;;;;;2.08;1.25;;;1.60;99.90;;;;;;4974959;28;20390;-82
2022/04/01 07:06:55;;;;;;;3.33;1.00;;;1.50;99.90;;;;;;4984990;28;20026;-82
2022/04/01 07:09:22;;;;;;;4.18;1.45;;;1.70;99.90;;;;;;4976806;28;20426;-82
2022/04/01 07:11:48;;;;;;;2.95;1.10;;;1.70;99.90;;;;;;4972713;28;20037;-82
2022/04/01 07:14:14;;;;;;;8.13;3.47;;;1.60;99.90;;;;;;4955689;28;20130;-82
2022/04/01 07:16:39;;;;;;;3.58;1.58;;;1.70;99.90;;;;;;4953470;28;20448;-83
2022/04/01 07:19:06;;;;;;;2.97;1.10;;;1.80;99.90;;;;;;4955976;28;20022;-83
2022/04/01 07:21:32;;;;;;;4.50;0.93;;;1.90;99.90;;;;;;4959534;28;20223;-83
2022/04/01 07:24:00;;;;;;;2.08;0.95;;;1.90;99.90;;;;;;4954792;28;20468;-83
2022/04/01 07:26:26;;;;;;;1.92;1.25;;;1.80;99.90;;;;;;4953178;28;20114;-83
2022/04/01 07:28:54;;;;;;;0.95;0.70;;;1.90;99.90;;;;;;4954553;28;20464;-82
2022/04/01 07:34:05;;;;;;;1.38;0.60;;;2.10;99.90;;;;;;4951367;28;20094;-82
2022/04/01 07:36:30;;;;;;;2.75;1.13;;;2.10;99.90;;;;;;4956968;28;20027;-83
2022/04/01 07:38:56;;;;;;;2.40;1.10;;;2.30;99.90;;;;;;4967710;28;20031;-82
2022/04/01 07:41:21;;;;;;;2.28;0.73;;;2.40;99.90;;;;;;4956326;28;20023;-82
2022/04/01 07:43:47;;;;;;;0.73;0.40;;;2.40;99.90;;;;;;4954402;29;20027;-82
2022/04/01 07:46:12;;;;;;;2.60;0.77;;;2.50;99.90;;;;;;4961379;28;20166;-81
2022/04/01 07:48:38;;;;;;;4.97;1.45;;;2.80;99.90;;;;;;4970147;28;20023;-82
2022/04/01 07:51:04;;;;;;;3.72;1.33;;;2.70;99.90;;;;;;4966650;28;20128;-82
2022/04/01 07:53:29;;;;;;;5.95;1.15;;;2.90;99.90;;;;;;4961243;28;20031;-81
2022/04/01 07:55:55;;;;;;;2.65;1.00;;;2.90;99.90;;;;;;4972380;28;20047;-81
2022/04/01 07:58:21;;;;;;;4.38;1.02;;;3.00;99.90;;;;;;4956110;28;20534;-81
2022/04/01 08:00:46;;;;;;;1.50;0.88;;;3.00;99.90;;;;;;4954497;28;20042;-81
2022/04/01 08:03:12;;;;;;;5.25;1.27;;;3.00;99.90;;;;;;4961181;28;20321;-84
2022/04/01 08:05:38;;;;;;;1.95;1.15;;;3.00;99.90;;;;;;4991877;28;20031;-83
2022/04/01 08:08:04;;;;;;;2.65;0.82;;;3.00;39.40;;;;;;4996172;28;20475;-83
2022/04/01 08:10:29;;;;;;;5.30;0.82;;;3.30;99.90;;;;;;4997076;28;20027;-83
2022/04/01 08:12:55;;;;;;;4.35;0.80;;;3.60;99.90;;;;;;4985682;28;20173;-82
2022/04/01 08:15:21;;;;;;;2.53;0.85;;;3.50;99.90;;;;;;4970446;28;20038;-83
2022/04/01 08:17:46;;;;;;;1.77;0.52;;;3.80;99.90;;;;;;4974035;28;20018;-81
2022/04/01 08:20:12;;;;;;;3.60;1.10;;;4.50;99.90;;;;;;4985878;28;20027;-79
2022/04/01 08:22:39;;;;;;;2.88;1.13;;;4.60;99.90;;;;;;4990768;28;20066;-78
2022/04/01 08:25:07;;;;;;;1.80;0.82;;;4.60;50.70;;;;;;4998097;28;20105;-78
2022/04/01 08:27:33;;;;;;;1.33;0.75;;;4.70;99.90;;;;;;4980511;28;20050;-80
2022/04/01 08:29:59;;;;;;;3.45;1.08;;;5.10;83.30;;;;;;4982765;28;20065;-80
2022/04/01 08:32:29;;;;;;;1.35;0.90;;;4.90;1.00;;;;;;4958530;28;20027;-80
2022/04/01 08:34:55;;;;;;;3.03;1.10;;;5.20;1.00;;;;;;4965969;28;20498;-80
2022/04/01 08:37:21;;;;;;;4.78;1.02;;;5.60;1.00;;;;;;4978166;28;20031;-80
2022/04/01 08:39:47;;;;;;;2.88;1.10;;;5.70;1.00;;;;;;4962830;28;20027;-79
2022/04/01 08:42:13;;;;;;;1.30;0.85;;;6.10;1.00;;;;;;4981525;28;20467;-80
2022/04/01 08:44:42;;;;;;;3.72;0.93;;;5.90;1.00;;;;;;4982749;28;20486;-81
2022/04/01 08:47:08;;;;;;;3.33;0.60;;;6.40;1.00;;;;;;4980831;28;20035;-81
2022/04/01 08:49:34;;;;;;;1.25;0.77;;;6.00;99.90;;;;;;4986350;28;20372;-80
2022/04/01 08:52:00;;;;;;;3.65;0.80;;;6.20;99.90;;;;;;4984145;28;20026;-79
2022/04/01 08:54:26;;;;;;;1.98;0.75;;;6.90;99.90;;;;;;4958137;28;20027;-79
2022/04/01 08:56:51;;;;;;;5.63;1.08;;;6.90;99.90;;;;;;4974439;28;20343;-78
2022/04/01 08:59:17;;;;;;;1.90;0.77;;;7.40;99.90;;;;;;4981710;28;20031;-80
2022/04/01 09:01:44;;;;;;;4.57;1.05;;;7.40;99.90;;;;;;4980746;28;20083;-80
2022/04/01 09:04:23;;;;;;;2.45;0.77;;;8.00;99.90;;;;;;4975726;28;20019;-80
2022/04/01 09:06:50;;;;;;;4.88;1.02;;;9.00;99.90;;;;;;4974440;28;20026;-80
2022/04/01 09:09:29;;;;;;;2.60;0.93;;;8.70;99.90;;;;;;4989771;28;20046;-80
2022/04/01 09:12:05;;;;;;;2.58;0.80;;;8.70;99.90;;;;;;4964573;28;20069;-80
2022/04/01 09:14:31;;;;;;;3.70;1.05;;;7.60;99.90;;;;;;4955411;28;20042;-80
2022/04/01 09:16:57;;;;;;;3.33;1.13;;;7.40;99.90;;;;;;4980064;28;20023;-80
2022/04/01 09:19:31;;;;;;;1.52;0.85;;;7.00;99.90;;;;;;4982480;28;20283;-80
2022/04/01 09:21:57;;;;;;;4.10;0.90;;;7.00;99.90;;;;;;4962087;28;20084;-79
2022/04/01 09:24:23;;;;;;;2.17;1.05;;;6.80;99.90;;;;;;4980980;28;20533;-79
2022/04/01 09:26:54;;;;;;;1.75;0.70;;;7.10;99.90;;;;;;4973766;28;20022;-79
2022/04/01 09:29:20;;;;;;;1.65;0.88;;;7.60;99.90;;;;;;4974972;28;20394;-80
2022/04/01 09:31:52;;;;;;;2.83;0.90;;;7.20;99.90;;;;;;4961427;28;20045;-79
2022/04/01 09:34:17;;;;;;;2.17;0.77;;;7.30;99.90;;;;;;4964756;28;20185;-81
2022/04/01 09:36:44;;;;;;;1.95;1.10;;;7.20;99.90;;;;;;4989364;28;20035;-80
2022/04/01 09:39:16;;;;;;;1.75;1.10;;;7.10;99.90;;;;;;4982358;28;20035;-80
2022/04/01 09:41:52;;;;;;;2.17;1.30;;;7.40;99.90;;;;;;4965443;28;20117;-80
2022/04/01 09:44:20;;;;;;;2.10;0.93;;;7.60;99.90;;;;;;4962507;28;20117;-79
2022/04/01 09:46:47;;;;;;;2.83;1.45;;;7.60;99.90;;;;;;4976003;28;20089;-80
2022/04/01 09:49:14;;;;;;;1.50;1.17;;;8.40;99.90;;;;;;4974291;28;20044;-80
2022/04/01 09:51:44;;;;;;;2.25;0.60;;;8.40;99.90;;;;;;4978612;28;20118;-80
2022/04/01 09:54:10;;;;;;;1.07;0.97;;;8.40;99.90;;;;;;4987722;28;20037;-79
2022/04/01 09:56:39;;;;;;;3.72;0.98;;;8.60;99.90;;;;;;4977122;28;20038;-80
2022/04/01 09:59:05;;;;;;;3.60;1.30;;;8.40;99.90;;;;;;4957358;28;20030;-80
2022/04/01 10:01:33;;;;;;;3.25;1.13;;;9.60;99.90;;;;;;4961092;28;20077;-79
2022/04/01 10:03:59;;;;;;;1.27;1.17;;;7.90;99.90;;;;;;4975799;28;20467;-79
2022/04/01 10:06:25;;;;;;;0.95;0.80;;;7.90;99.90;;;;;;4981848;28;20030;-80
2022/04/01 10:08:51;;;;;;;1.60;1.00;;;8.40;99.90;;;;;;4978080;28;20328;-80
2022/04/01 10:11:20;;;;;;;1.90;0.80;;;8.70;99.90;;;;;;4983514;28;20035;-79
2022/04/01 10:13:46;;;;;;;3.33;1.08;;;8.40;99.90;;;;;;4944007;28;20415;-79
2022/04/01 10:16:13;;;;;;;2.72;1.00;;;7.90;99.90;;;;;;4968117;28;20486;-79
2022/04/01 10:18:41;;;;;;;19.20;2.95;;;7.40;99.90;;;;;;4962563;28;20418;-79
2022/04/01 10:21:08;;;;;;;2.53;1.30;;;9.10;99.90;;;;;;4954420;28;20027;-79
2022/04/01 10:23:37;;;;;;;1.05;0.65;;;8.30;99.90;;;;;;4955538;28;20027;-79
2022/04/01 10:26:08;;;;;;;6.65;1.55;;;8.70;99.90;;;;;;4956070;28;20055;-79
2022/04/01 10:28:34;;;;;;;2.13;1.17;;;8.90;99.90;;;;;;4957155;28;20094;-79
2022/04/01 10:31:02;;;;;;;1.17;0.82;;;8.60;99.90;;;;;;4961575;28;20471;-79
2022/04/01 10:33:33;;;;;;;1.98;0.90;;;8.30;99.90;;;;;;4940927;28;20030;-79
2022/04/01 10:35:59;;;;;;;2.78;0.95;;;8.70;99.90;;;;;;4959915;28;20027;-79
2022/04/01 10:38:30;;;;;;;2.22;0.93;;;8.10;99.90;;;;;;4953054;28;20023;-79
2022/04/01 10:41:05;;;;;;;;;;;7.60;99.90;;;;;;4949642;28;20031;-78
2022/04/01 10:43:31;;;;;;;3.53;0.80;;;7.00;99.90;;;;;;4959897;28;19938;-79
2022/04/01 10:46:10;;;;;;;2.05;0.90;;;6.70;99.90;;;;;;4960037;28;20505;-78
2022/04/01 10:51:41;;;;;;;3.45;0.95;;;6.60;99.90;;;;;;4966284;28;20058;-78
2022/04/01 10:54:10;;;;;;;3.03;1.33;;;7.40;99.90;;;;;;4966094;28;20124;-78
2022/04/01 10:56:36;;;;;;;4.07;1.80;;;6.30;1.00;;;;;;4970585;28;20023;-78
2022/04/01 10:59:07;;;;;;;5.15;2.28;;;5.60;1.00;;;;;;4967665;28;20023;-78
2022/04/01 11:01:43;;;;;;;2.47;1.15;;;5.40;1.00;;;;;;4966928;28;20032;-78
2022/04/01 11:04:12;;;;;;;2.55;1.60;;;5.30;1.00;;;;;;4971417;28;20054;-78
2022/04/01 11:06:57;;;;;;;4.07;1.90;;;5.30;1.00;;;;;;4969343;28;20051;-79
2022/04/01 11:09:42;;;;;;;1.88;0.80;;;4.90;1.00;;;;;;4974579;28;20091;-78
2022/04/01 11:12:19;;;;;;;2.60;1.38;;;4.80;1.00;;;;;;4971687;28;20035;-78
2022/04/01 11:14:56;;;;;;;2.40;1.00;;;4.80;1.00;;;;;;4989814;28;20074;-78
2022/04/01 11:17:34;;;;;;;2.25;0.90;;;4.60;1.00;;;;;;4989860;28;20038;-77
2022/04/01 11:20:13;;;;;;;1.30;0.68;;;4.40;1.00;;;;;;4970821;28;20050;-77
2022/04/01 11:22:42;;;;;;;4.25;2.08;;;5.00;1.00;;;;;;4995636;28;20039;-78
2022/04/01 11:25:31;;;;;;;2.63;0.87;;;4.80;1.00;;;;;;4999738;28;20040;-78
2022/04/01 11:27:56;;;;;;;3.80;1.00;;;4.90;1.00;;;;;;4982197;28;20284;-78
2022/04/01 11:30:25;;;;;;;2.85;0.90;;;4.80;1.00;;;;;;4994806;28;20023;-78
2022/04/01 11:32:55;;;;;;;1.35;0.80;;;4.90;1.00;;;;;;4993189;28;20027;-77
2022/04/01 11:35:23;;;;;;;3.05;0.90;;;4.70;1.00;;;;;;4976382;28;20026;-78
2022/04/01 11:37:49;;;;;;;3.10;0.77;;;4.40;1.00;;;;;;4975960;28;20030;-78
2022/04/01 11:40:18;;;;;;;2.03;1.00;;;4.60;1.00;;;;;;4987274;28;20091;-78
2022/04/01 11:42:57;;;;;;;1.42;0.80;;;4.70;1.00;;;;;;4993967;28;20038;-80
2022/04/01 11:45:23;;;;;;;2.95;0.90;;;4.70;1.00;;;;;;5003746;28;20022;-79
2022/04/01 11:47:49;;;;;;;4.75;1.13;;;5.00;1.00;;;;;;5000459;28;20026;-79
2022/04/01 11:50:17;;;;;;;3.15;0.95;;;5.10;1.00;;;;;;5005787;28;20050;-78
2022/04/01 11:52:45;;;;;;;3.45;0.85;;;5.20;1.00;;;;;;5003004;28;20363;-78
2022/04/01 11:55:15;;;;;;;1.38;1.05;;;5.30;1.00;;;;;;4997154;28;20023;-80
2022/04/01 11:57:41;;;;;;;1.67;1.30;;;5.40;1.00;;;;;;5007520;28;20014;-81
2022/04/01 12:00:11;;;;;;;1.90;0.45;;;5.30;1.00;;;;;;5002506;28;20082;-79
2022/04/01 12:02:38;;;;;;;3.22;1.30;;;5.50;1.00;;;;;;4979596;28;20045;-79
2022/04/01 12:05:04;;;;;;;2.20;0.95;;;5.60;1.00;;;;;;4976575;28;20023;-80
2022/04/01 12:10:24;;;;;;;3.97;1.20;;;5.60;1.00;;;;;;4998703;28;20037;-80
2022/04/01 12:13:04;;;;;;;1.50;0.70;;;5.80;1.00;;;;;;4980918;28;20042;-79
2022/04/01 12:15:37;;;;;;;3.38;0.95;;;6.00;99.90;;;;;;5000182;28;20034;-79
2022/04/01 12:18:07;;;;;;;6.82;1.50;;;5.90;99.90;;;;;;4999096;28;20041;-79
2022/04/01 12:20:51;;;;;;;3.15;1.10;;;5.90;99.90;;;;;;5014805;28;20046;-80
2022/04/01 12:23:19;;;;;;;4.03;1.25;;;6.00;99.90;;;;;;5016140;28;20033;-80
2022/04/01 12:25:45;;;;;;;2.35;1.10;;;5.70;99.90;;;;;;4985498;28;20050;-80
2022/04/01 12:28:13;;;;;;;3.05;0.90;;;5.40;99.90;;;;;;4997975;28;20027;-79
2022/04/01 12:30:42;;;;;;;2.45;1.23;;;5.10;99.90;;;;;;4989439;28;20038;-78
2022/04/01 12:33:10;;;;;;;1.75;0.98;;;5.30;99.90;;;;;;4965242;28;20039;-79
2022/04/01 12:35:54;;;;;;;1.75;1.13;;;5.50;99.90;;;;;;4984238;28;20032;-78
2022/04/01 12:38:20;;;;;;;1.02;0.90;;;5.90;99.90;;;;;;4978972;28;20098;-78
2022/04/01 12:40:46;;;;;;;1.83;0.63;;;6.00;99.90;;;;;;4968747;28;20069;-78
2022/04/01 12:43:30;;;;;;;3.22;1.05;;;6.00;99.90;;;;;;4980641;28;20026;-78
2022/04/01 12:46:00;;;;;;;2.13;0.98;;;6.00;99.90;;;;;;4976341;28;20031;-78
2022/04/01 12:48:28;;;;;;;0.77;0.70;;;6.10;99.90;;;;;;4961422;28;20344;-78
2022/04/01 12:50:57;;;;;;;2.15;0.80;;;6.20;99.90;;;;;;4965653;28;20132;-78
2022/04/01 12:53:23;;;;;;;1.88;1.00;;;6.40;99.90;;;;;;4980230;28;20061;-78
2022/04/01 12:55:48;;;;;;;0.80;0.43;;;6.10;99.90;;;;;;4985558;28;20035;-79
2022/04/01 12:58:14;;;;;;;1.60;0.60;;;6.10;99.90;;;;;;4972278;28;20061;-80
2022/04/01 13:00:40;;;;;;;1.75;0.60;;;5.90;99.90;;;;;;4977357;28;20026;-76
2022/04/01 13:03:08;;;;;;;2.00;0.77;;;6.10;99.90;;;;;;4971313;28;20042;-77
2022/04/01 13:05:34;;;;;;;2.05;0.82;;;6.20;99.90;;;;;;5002049;28;20023;-78
2022/04/01 13:07:59;;;;;;;0.80;0.65;;;6.10;99.90;;;;;;4973506;28;20364;-77
2022/04/01 13:10:26;;;;;;;3.50;0.85;;;6.20;99.90;;;;;;4989115;28;20062;-77
2022/04/01 13:12:52;;;;;;;1.17;0.63;;;6.20;99.90;;;;;;4972091;28;20051;-77
2022/04/01 13:15:21;;;;;;;1.48;0.98;;;6.20;99.90;;;;;;4993623;28;20014;-79
2022/04/01 13:17:52;;;;;;;4.82;1.15;;;6.40;99.90;;;;;;4996048;28;20023;-77
2022/04/01 13:20:23;;;;;;;0.82;0.60;;;6.50;99.90;;;;;;4996168;28;20038;-80
2022/04/01 13:22:49;;;;;;;2.45;0.90;;;6.00;99.90;;;;;;4995198;28;20472;-77
2022/04/01 13:25:15;;;;;;;1.92;0.68;;;5.90;99.90;;;;;;4982477;28;20034;-76
2022/04/01 13:27:42;;;;;;;2.30;0.82;;;6.00;99.90;;;;;;4997196;28;20034;-76
2022/04/01 13:30:10;;;;;;;4.57;1.23;;;5.80;99.90;;;;;;4977195;28;20478;-77
2022/04/01 13:32:36;;;;;;;1.75;0.50;;;6.00;99.90;;;;;;4987604;28;20098;-77